sensor_id;sensor_type;location;lat;lon;timestamp;P1;durP1;ratioP1;P2;durP2;ratioP2
68273;SDS011;55104;47.356;19.448;2023-03-21T00:02:11;7.70;;;2.60;;
68273;SDS011;55104;47.356;19.448;2023-03-21T00:05:14;2.43;;;1.13;;
68273;SDS011;55104;47.356;19.448;2023-03-21T00:08:17;8.15;;;2.78;;
68273;SDS011;55104;47.356;19.448;2023-03-21T00:11:19;7.30;;;2.28;;
68273;SDS011;55104;47.356;19.448;2023-03-21T00:14:22;4.97;;;2.47;;
68273;SDS011;55104;47.356;19.448;2023-03-21T00:17:26;5.03;;;2.53;;
68273;SDS011;55104;47.356;19.448;2023-03-21T00:20:33;8.57;;;3.50;;
68273;SDS011;55104;47.356;19.448;2023-03-21T00:23:35;4.85;;;2.22;;
68273;SDS011;55104;47.356;19.448;2023-03-21T00:26:37;5.00;;;2.03;;
68273;SDS011;55104;47.356;19.448;2023-03-21T00:29:39;5.68;;;1.95;;
68273;SDS011;55104;47.356;19.448;2023-03-21T00:32:41;15.93;;;2.90;;
68273;SDS011;55104;47.356;19.448;2023-03-21T00:35:56;5.97;;;2.97;;
68273;SDS011;55104;47.356;19.448;2023-03-21T00:39:07;5.43;;;3.45;;
68273;SDS011;55104;47.356;19.448;2023-03-21T00:42:09;5.35;;;2.00;;
68273;SDS011;55104;47.356;19.448;2023-03-21T00:45:11;9.98;;;2.35;;
68273;SDS011;55104;47.356;19.448;2023-03-21T00:48:13;3.77;;;1.50;;
68273;SDS011;55104;47.356;19.448;2023-03-21T00:51:20;7.10;;;3.67;;
68273;SDS011;55104;47.356;19.448;2023-03-21T00:54:27;15.55;;;2.10;;
68273;SDS011;55104;47.356;19.448;2023-03-21T00:57:29;6.63;;;3.40;;
68273;SDS011;55104;47.356;19.448;2023-03-21T01:00:40;5.07;;;2.08;;
68273;SDS011;55104;47.356;19.448;2023-03-21T01:03:42;6.53;;;3.35;;
68273;SDS011;55104;47.356;19.448;2023-03-21T01:06:51;4.80;;;2.05;;
68273;SDS011;55104;47.356;19.448;2023-03-21T01:09:55;7.07;;;1.05;;
68273;SDS011;55104;47.356;19.448;2023-03-21T01:12:59;4.13;;;1.83;;
68273;SDS011;55104;47.356;19.448;2023-03-21T01:16:04;12.00;;;2.38;;
68273;SDS011;55104;47.356;19.448;2023-03-21T01:19:09;12.97;;;2.60;;
68273;SDS011;55104;47.356;19.448;2023-03-21T01:22:25;4.25;;;1.55;;
68273;SDS011;55104;47.356;19.448;2023-03-21T01:25:27;3.92;;;1.88;;
68273;SDS011;55104;47.356;19.448;2023-03-21T01:28:30;2.67;;;1.20;;
68273;SDS011;55104;47.356;19.448;2023-03-21T01:31:32;6.82;;;1.80;;
68273;SDS011;55104;47.356;19.448;2023-03-21T01:34:34;6.80;;;2.03;;
68273;SDS011;55104;47.356;19.448;2023-03-21T01:37:36;2.90;;;1.25;;
68273;SDS011;55104;47.356;19.448;2023-03-21T01:40:39;4.28;;;1.50;;
68273;SDS011;55104;47.356;19.448;2023-03-21T01:43:51;6.03;;;2.92;;
68273;SDS011;55104;47.356;19.448;2023-03-21T01:46:59;3.47;;;1.58;;
68273;SDS011;55104;47.356;19.448;2023-03-21T01:50:41;4.90;;;1.67;;
68273;SDS011;55104;47.356;19.448;2023-03-21T01:53:55;9.35;;;2.00;;
68273;SDS011;55104;47.356;19.448;2023-03-21T01:57:00;7.32;;;2.67;;
68273;SDS011;55104;47.356;19.448;2023-03-21T02:00:05;3.83;;;1.67;;
68273;SDS011;55104;47.356;19.448;2023-03-21T02:03:33;3.42;;;1.77;;
68273;SDS011;55104;47.356;19.448;2023-03-21T02:07:09;7.63;;;1.73;;
68273;SDS011;55104;47.356;19.448;2023-03-21T02:10:23;9.10;;;2.15;;
68273;SDS011;55104;47.356;19.448;2023-03-21T02:13:28;6.07;;;2.67;;
68273;SDS011;55104;47.356;19.448;2023-03-21T02:16:41;2.92;;;1.30;;
68273;SDS011;55104;47.356;19.448;2023-03-21T02:37:16;1.90;;;0.90;;
68273;SDS011;55104;47.356;19.448;2023-03-21T02:50:11;3.60;;;1.30;;
68273;SDS011;55104;47.356;19.448;2023-03-21T02:53:25;1.38;;;0.60;;
68273;SDS011;55104;47.356;19.448;2023-03-21T02:56:37;3.50;;;1.30;;
68273;SDS011;55104;47.356;19.448;2023-03-21T02:59:41;2.45;;;0.90;;
68273;SDS011;55104;47.356;19.448;2023-03-21T03:03:00;1.73;;;0.88;;
68273;SDS011;55104;47.356;19.448;2023-03-21T03:06:23;1.80;;;0.90;;
68273;SDS011;55104;47.356;19.448;2023-03-21T03:16:24;2.00;;;1.15;;
68273;SDS011;55104;47.356;19.448;2023-03-21T03:19:43;1.10;;;0.50;;
68273;SDS011;55104;47.356;19.448;2023-03-21T03:23:11;2.88;;;1.17;;
68273;SDS011;55104;47.356;19.448;2023-03-21T03:26:38;2.22;;;0.88;;
68273;SDS011;55104;47.356;19.448;2023-03-21T03:29:47;1.47;;;0.80;;
68273;SDS011;55104;47.356;19.448;2023-03-21T03:32:56;1.55;;;0.68;;
68273;SDS011;55104;47.356;19.448;2023-03-21T03:36:02;2.92;;;1.17;;
68273;SDS011;55104;47.356;19.448;2023-03-21T03:39:11;3.00;;;1.30;;
68273;SDS011;55104;47.356;19.448;2023-03-21T03:42:18;1.83;;;0.80;;
68273;SDS011;55104;47.356;19.448;2023-03-21T03:45:42;1.65;;;0.45;;
68273;SDS011;55104;47.356;19.448;2023-03-21T03:49:13;1.02;;;0.45;;
68273;SDS011;55104;47.356;19.448;2023-03-21T03:52:20;2.77;;;0.87;;
68273;SDS011;55104;47.356;19.448;2023-03-21T03:55:43;1.65;;;0.65;;
68273;SDS011;55104;47.356;19.448;2023-03-21T03:58:48;3.67;;;0.85;;
68273;SDS011;55104;47.356;19.448;2023-03-21T04:01:54;1.10;;;0.52;;
68273;SDS011;55104;47.356;19.448;2023-03-21T04:04:57;0.85;;;0.45;;
68273;SDS011;55104;47.356;19.448;2023-03-21T04:07:59;5.60;;;0.82;;
68273;SDS011;55104;47.356;19.448;2023-03-21T04:11:09;2.40;;;0.77;;
68273;SDS011;55104;47.356;19.448;2023-03-21T04:14:14;5.27;;;0.87;;
68273;SDS011;55104;47.356;19.448;2023-03-21T04:17:18;1.40;;;0.68;;
68273;SDS011;55104;47.356;19.448;2023-03-21T04:20:21;7.88;;;0.90;;
68273;SDS011;55104;47.356;19.448;2023-03-21T04:23:38;1.13;;;0.38;;
68273;SDS011;55104;47.356;19.448;2023-03-21T04:26:41;1.53;;;0.93;;
68273;SDS011;55104;47.356;19.448;2023-03-21T04:30:13;1.42;;;0.57;;
68273;SDS011;55104;47.356;19.448;2023-03-21T04:33:24;2.90;;;0.80;;
68273;SDS011;55104;47.356;19.448;2023-03-21T04:36:29;3.43;;;1.27;;
68273;SDS011;55104;47.356;19.448;2023-03-21T04:39:35;2.78;;;1.00;;
68273;SDS011;55104;47.356;19.448;2023-03-21T04:42:37;1.40;;;0.47;;
68273;SDS011;55104;47.356;19.448;2023-03-21T04:45:39;2.85;;;0.93;;
68273;SDS011;55104;47.356;19.448;2023-03-21T04:48:42;1.88;;;0.73;;
68273;SDS011;55104;47.356;19.448;2023-03-21T04:51:45;2.72;;;0.80;;
68273;SDS011;55104;47.356;19.448;2023-03-21T04:54:52;1.67;;;0.70;;
68273;SDS011;55104;47.356;19.448;2023-03-21T04:57:54;2.93;;;0.67;;
68273;SDS011;55104;47.356;19.448;2023-03-21T05:00:56;0.75;;;0.35;;
68273;SDS011;55104;47.356;19.448;2023-03-21T05:03:58;0.93;;;0.40;;
68273;SDS011;55104;47.356;19.448;2023-03-21T05:07:04;2.80;;;0.98;;
68273;SDS011;55104;47.356;19.448;2023-03-21T05:10:07;1.60;;;0.45;;
68273;SDS011;55104;47.356;19.448;2023-03-21T05:13:14;2.50;;;0.77;;
68273;SDS011;55104;47.356;19.448;2023-03-21T05:16:16;2.65;;;0.73;;
68273;SDS011;55104;47.356;19.448;2023-03-21T05:19:20;1.03;;;0.53;;
68273;SDS011;55104;47.356;19.448;2023-03-21T05:22:24;3.13;;;0.90;;
68273;SDS011;55104;47.356;19.448;2023-03-21T05:25:29;0.98;;;0.70;;
68273;SDS011;55104;47.356;19.448;2023-03-21T05:28:50;0.98;;;0.38;;
68273;SDS011;55104;47.356;19.448;2023-03-21T05:31:52;1.17;;;0.30;;
68273;SDS011;55104;47.356;19.448;2023-03-21T05:34:55;9.27;;;1.00;;
68273;SDS011;55104;47.356;19.448;2023-03-21T05:37:57;3.15;;;1.05;;
68273;SDS011;55104;47.356;19.448;2023-03-21T05:41:01;1.15;;;0.60;;
68273;SDS011;55104;47.356;19.448;2023-03-21T05:44:05;1.73;;;0.63;;
68273;SDS011;55104;47.356;19.448;2023-03-21T05:47:08;3.17;;;0.70;;
68273;SDS011;55104;47.356;19.448;2023-03-21T05:50:16;2.08;;;0.93;;
68273;SDS011;55104;47.356;19.448;2023-03-21T05:53:27;1.55;;;0.47;;
68273;SDS011;55104;47.356;19.448;2023-03-21T05:56:30;3.33;;;0.43;;
68273;SDS011;55104;47.356;19.448;2023-03-21T05:59:41;3.08;;;0.82;;
68273;SDS011;55104;47.356;19.448;2023-03-21T06:02:43;5.13;;;0.70;;
68273;SDS011;55104;47.356;19.448;2023-03-21T06:06:04;1.70;;;0.63;;
68273;SDS011;55104;47.356;19.448;2023-03-21T06:09:12;1.30;;;0.50;;
68273;SDS011;55104;47.356;19.448;2023-03-21T06:12:18;2.22;;;0.70;;
68273;SDS011;55104;47.356;19.448;2023-03-21T06:15:49;1.50;;;0.70;;
68273;SDS011;55104;47.356;19.448;2023-03-21T06:18:55;1.20;;;0.38;;
68273;SDS011;55104;47.356;19.448;2023-03-21T06:22:10;1.63;;;0.73;;
68273;SDS011;55104;47.356;19.448;2023-03-21T06:25:14;2.00;;;0.93;;
68273;SDS011;55104;47.356;19.448;2023-03-21T06:28:17;0.82;;;0.40;;
68273;SDS011;55104;47.356;19.448;2023-03-21T06:31:20;2.22;;;2.00;;
68273;SDS011;55104;47.356;19.448;2023-03-21T06:34:24;3.63;;;1.33;;
68273;SDS011;55104;47.356;19.448;2023-03-21T06:37:27;0.53;;;0.23;;
68273;SDS011;55104;47.356;19.448;2023-03-21T06:40:30;2.75;;;1.10;;
68273;SDS011;55104;47.356;19.448;2023-03-21T06:43:32;1.90;;;0.82;;
68273;SDS011;55104;47.356;19.448;2023-03-21T06:46:36;2.17;;;0.80;;
68273;SDS011;55104;47.356;19.448;2023-03-21T06:49:39;1.60;;;0.65;;
68273;SDS011;55104;47.356;19.448;2023-03-21T06:52:45;2.87;;;0.83;;
68273;SDS011;55104;47.356;19.448;2023-03-21T06:55:48;2.78;;;0.90;;
68273;SDS011;55104;47.356;19.448;2023-03-21T06:58:53;0.88;;;0.30;;
68273;SDS011;55104;47.356;19.448;2023-03-21T07:02:18;2.33;;;1.02;;
68273;SDS011;55104;47.356;19.448;2023-03-21T07:05:30;2.25;;;0.93;;
68273;SDS011;55104;47.356;19.448;2023-03-21T07:08:32;1.13;;;0.30;;
68273;SDS011;55104;47.356;19.448;2023-03-21T07:11:36;1.83;;;0.80;;
68273;SDS011;55104;47.356;19.448;2023-03-21T07:14:39;1.75;;;0.45;;
68273;SDS011;55104;47.356;19.448;2023-03-21T07:17:41;1.85;;;1.05;;
68273;SDS011;55104;47.356;19.448;2023-03-21T07:20:45;1.35;;;0.50;;
68273;SDS011;55104;47.356;19.448;2023-03-21T07:23:51;0.57;;;0.30;;
68273;SDS011;55104;47.356;19.448;2023-03-21T07:26:54;2.47;;;0.73;;
68273;SDS011;55104;47.356;19.448;2023-03-21T07:29:56;5.30;;;1.08;;
68273;SDS011;55104;47.356;19.448;2023-03-21T07:32:59;1.80;;;0.63;;
68273;SDS011;55104;47.356;19.448;2023-03-21T07:36:01;2.35;;;0.43;;
68273;SDS011;55104;47.356;19.448;2023-03-21T07:39:04;2.03;;;0.67;;
68273;SDS011;55104;47.356;19.448;2023-03-21T07:42:07;1.55;;;0.52;;
68273;SDS011;55104;47.356;19.448;2023-03-21T07:45:13;3.10;;;0.82;;
68273;SDS011;55104;47.356;19.448;2023-03-21T07:48:22;2.00;;;0.60;;
68273;SDS011;55104;47.356;19.448;2023-03-21T07:51:26;3.53;;;1.08;;
68273;SDS011;55104;47.356;19.448;2023-03-21T07:54:29;2.67;;;0.90;;
68273;SDS011;55104;47.356;19.448;2023-03-21T07:57:31;0.73;;;0.30;;
68273;SDS011;55104;47.356;19.448;2023-03-21T08:00:34;1.90;;;0.70;;
68273;SDS011;55104;47.356;19.448;2023-03-21T08:03:38;2.30;;;0.80;;
68273;SDS011;55104;47.356;19.448;2023-03-21T08:06:40;2.75;;;0.95;;
68273;SDS011;55104;47.356;19.448;2023-03-21T08:09:43;2.50;;;0.73;;
68273;SDS011;55104;47.356;19.448;2023-03-21T08:12:45;2.38;;;1.05;;
68273;SDS011;55104;47.356;19.448;2023-03-21T08:15:47;2.38;;;0.77;;
68273;SDS011;55104;47.356;19.448;2023-03-21T08:18:49;1.25;;;0.43;;
68273;SDS011;55104;47.356;19.448;2023-03-21T08:21:52;1.13;;;0.52;;
68273;SDS011;55104;47.356;19.448;2023-03-21T08:24:54;0.67;;;0.33;;
68273;SDS011;55104;47.356;19.448;2023-03-21T08:27:56;2.03;;;0.60;;
68273;SDS011;55104;47.356;19.448;2023-03-21T08:30:58;0.80;;;0.30;;
68273;SDS011;55104;47.356;19.448;2023-03-21T08:34:00;1.33;;;0.38;;
68273;SDS011;55104;47.356;19.448;2023-03-21T08:37:03;2.67;;;0.93;;
68273;SDS011;55104;47.356;19.448;2023-03-21T08:40:05;1.93;;;0.60;;
68273;SDS011;55104;47.356;19.448;2023-03-21T08:43:12;0.95;;;0.45;;
68273;SDS011;55104;47.356;19.448;2023-03-21T08:46:15;1.33;;;0.55;;
68273;SDS011;55104;47.356;19.448;2023-03-21T08:49:17;1.52;;;0.40;;
68273;SDS011;55104;47.356;19.448;2023-03-21T08:52:19;0.68;;;0.20;;
68273;SDS011;55104;47.356;19.448;2023-03-21T08:55:22;0.97;;;0.40;;
68273;SDS011;55104;47.356;19.448;2023-03-21T08:58:24;1.52;;;0.57;;
68273;SDS011;55104;47.356;19.448;2023-03-21T09:01:27;1.02;;;0.50;;
68273;SDS011;55104;47.356;19.448;2023-03-21T09:04:28;2.15;;;0.77;;
68273;SDS011;55104;47.356;19.448;2023-03-21T09:07:31;1.58;;;0.50;;
68273;SDS011;55104;47.356;19.448;2023-03-21T09:10:36;1.60;;;0.63;;
68273;SDS011;55104;47.356;19.448;2023-03-21T09:13:39;2.10;;;0.87;;
68273;SDS011;55104;47.356;19.448;2023-03-21T09:16:41;2.92;;;0.77;;
68273;SDS011;55104;47.356;19.448;2023-03-21T09:19:43;0.80;;;0.35;;
68273;SDS011;55104;47.356;19.448;2023-03-21T09:22:47;1.27;;;0.40;;
68273;SDS011;55104;47.356;19.448;2023-03-21T09:25:50;1.60;;;0.40;;
68273;SDS011;55104;47.356;19.448;2023-03-21T09:28:56;1.03;;;0.47;;
68273;SDS011;55104;47.356;19.448;2023-03-21T09:31:59;1.52;;;0.40;;
68273;SDS011;55104;47.356;19.448;2023-03-21T09:35:02;2.30;;;1.25;;
68273;SDS011;55104;47.356;19.448;2023-03-21T09:38:06;1.55;;;0.80;;
68273;SDS011;55104;47.356;19.448;2023-03-21T09:41:11;1.10;;;0.50;;
68273;SDS011;55104;47.356;19.448;2023-03-21T09:44:41;0.80;;;0.40;;
68273;SDS011;55104;47.356;19.448;2023-03-21T09:47:53;0.85;;;0.30;;
68273;SDS011;55104;47.356;19.448;2023-03-21T09:50:57;2.83;;;0.43;;
68273;SDS011;55104;47.356;19.448;2023-03-21T09:54:02;1.42;;;0.43;;
68273;SDS011;55104;47.356;19.448;2023-03-21T10:00:36;1.30;;;0.70;;
68273;SDS011;55104;47.356;19.448;2023-03-21T10:03:40;2.63;;;0.88;;
68273;SDS011;55104;47.356;19.448;2023-03-21T10:06:44;1.02;;;0.40;;
68273;SDS011;55104;47.356;19.448;2023-03-21T10:09:54;0.77;;;0.32;;
68273;SDS011;55104;47.356;19.448;2023-03-21T10:12:56;1.13;;;0.43;;
68273;SDS011;55104;47.356;19.448;2023-03-21T10:16:00;1.17;;;0.47;;
68273;SDS011;55104;47.356;19.448;2023-03-21T10:19:12;1.52;;;0.35;;
68273;SDS011;55104;47.356;19.448;2023-03-21T10:22:16;1.33;;;0.40;;
68273;SDS011;55104;47.356;19.448;2023-03-21T10:25:19;0.88;;;0.30;;
68273;SDS011;55104;47.356;19.448;2023-03-21T10:28:29;0.73;;;0.30;;
68273;SDS011;55104;47.356;19.448;2023-03-21T10:31:52;0.97;;;0.37;;
68273;SDS011;55104;47.356;19.448;2023-03-21T10:34:55;1.17;;;0.30;;
68273;SDS011;55104;47.356;19.448;2023-03-21T10:37:59;0.75;;;0.30;;
68273;SDS011;55104;47.356;19.448;2023-03-21T10:41:02;3.47;;;0.73;;
68273;SDS011;55104;47.356;19.448;2023-03-21T10:44:05;0.40;;;0.20;;
68273;SDS011;55104;47.356;19.448;2023-03-21T10:47:11;0.47;;;0.20;;
68273;SDS011;55104;47.356;19.448;2023-03-21T10:50:19;0.98;;;0.30;;
68273;SDS011;55104;47.356;19.448;2023-03-21T10:53:28;1.38;;;0.43;;
68273;SDS011;55104;47.356;19.448;2023-03-21T10:56:35;1.20;;;0.30;;
68273;SDS011;55104;47.356;19.448;2023-03-21T10:59:43;0.60;;;0.20;;
68273;SDS011;55104;47.356;19.448;2023-03-21T11:02:49;0.40;;;0.20;;
68273;SDS011;55104;47.356;19.448;2023-03-21T11:09:11;2.30;;;0.50;;
68273;SDS011;55104;47.356;19.448;2023-03-21T11:12:17;1.27;;;0.52;;
68273;SDS011;55104;47.356;19.448;2023-03-21T11:15:56;3.23;;;0.50;;
68273;SDS011;55104;47.356;19.448;2023-03-21T11:19:12;0.57;;;0.30;;
68273;SDS011;55104;47.356;19.448;2023-03-21T11:22:17;1.08;;;0.40;;
68273;SDS011;55104;47.356;19.448;2023-03-21T11:25:40;1.63;;;0.40;;
68273;SDS011;55104;47.356;19.448;2023-03-21T11:28:44;0.55;;;0.30;;
68273;SDS011;55104;47.356;19.448;2023-03-21T11:31:47;0.63;;;0.20;;
68273;SDS011;55104;47.356;19.448;2023-03-21T11:34:55;0.73;;;0.30;;
68273;SDS011;55104;47.356;19.448;2023-03-21T11:38:00;0.85;;;0.30;;
68273;SDS011;55104;47.356;19.448;2023-03-21T11:41:03;2.00;;;0.60;;
68273;SDS011;55104;47.356;19.448;2023-03-21T11:44:05;0.68;;;0.30;;
68273;SDS011;55104;47.356;19.448;2023-03-21T11:47:23;0.97;;;0.30;;
68273;SDS011;55104;47.356;19.448;2023-03-21T12:00:23;0.80;;;0.30;;
68273;SDS011;55104;47.356;19.448;2023-03-21T12:03:40;2.47;;;0.50;;
68273;SDS011;55104;47.356;19.448;2023-03-21T12:16:59;0.80;;;0.28;;
68273;SDS011;55104;47.356;19.448;2023-03-21T12:20:15;0.77;;;0.20;;
68273;SDS011;55104;47.356;19.448;2023-03-21T12:23:37;1.10;;;0.40;;
68273;SDS011;55104;47.356;19.448;2023-03-21T12:27:03;1.52;;;0.30;;
68273;SDS011;55104;47.356;19.448;2023-03-21T12:30:31;1.15;;;0.43;;
68273;SDS011;55104;47.356;19.448;2023-03-21T12:37:26;0.87;;;0.30;;
68273;SDS011;55104;47.356;19.448;2023-03-21T12:46:57;0.70;;;0.28;;
68273;SDS011;55104;47.356;19.448;2023-03-21T12:50:12;0.43;;;0.20;;
68273;SDS011;55104;47.356;19.448;2023-03-21T12:56:54;1.00;;;0.40;;
68273;SDS011;55104;47.356;19.448;2023-03-21T13:00:24;1.00;;;0.32;;
68273;SDS011;55104;47.356;19.448;2023-03-21T13:03:35;0.60;;;0.30;;
68273;SDS011;55104;47.356;19.448;2023-03-21T13:06:41;1.42;;;0.40;;
68273;SDS011;55104;47.356;19.448;2023-03-21T13:09:47;0.77;;;0.20;;
68273;SDS011;55104;47.356;19.448;2023-03-21T13:19:49;0.60;;;0.20;;
68273;SDS011;55104;47.356;19.448;2023-03-21T13:22:48;1.10;;;0.40;;
68273;SDS011;55104;47.356;19.448;2023-03-21T13:25:51;1.07;;;0.50;;
68273;SDS011;55104;47.356;19.448;2023-03-21T13:28:56;1.23;;;0.33;;
68273;SDS011;55104;47.356;19.448;2023-03-21T13:32:06;0.90;;;0.40;;
68273;SDS011;55104;47.356;19.448;2023-03-21T13:35:21;0.50;;;0.20;;
68273;SDS011;55104;47.356;19.448;2023-03-21T13:38:28;1.67;;;0.65;;
68273;SDS011;55104;47.356;19.448;2023-03-21T13:41:35;3.07;;;0.93;;
68273;SDS011;55104;47.356;19.448;2023-03-21T13:44:40;4.03;;;1.30;;
68273;SDS011;55104;47.356;19.448;2023-03-21T13:47:55;2.03;;;0.60;;
68273;SDS011;55104;47.356;19.448;2023-03-21T13:51:08;0.82;;;0.30;;
68273;SDS011;55104;47.356;19.448;2023-03-21T13:57:21;1.50;;;0.47;;
68273;SDS011;55104;47.356;19.448;2023-03-21T14:00:37;1.83;;;0.60;;
68273;SDS011;55104;47.356;19.448;2023-03-21T14:03:40;2.33;;;0.50;;
68273;SDS011;55104;47.356;19.448;2023-03-21T14:09:59;2.35;;;0.50;;
68273;SDS011;55104;47.356;19.448;2023-03-21T14:13:07;1.27;;;0.47;;
68273;SDS011;55104;47.356;19.448;2023-03-21T14:16:16;1.10;;;0.50;;
68273;SDS011;55104;47.356;19.448;2023-03-21T14:19:20;0.60;;;0.20;;
68273;SDS011;55104;47.356;19.448;2023-03-21T14:22:30;2.80;;;0.80;;
68273;SDS011;55104;47.356;19.448;2023-03-21T14:25:33;0.73;;;0.25;;
68273;SDS011;55104;47.356;19.448;2023-03-21T14:28:48;1.23;;;0.40;;
68273;SDS011;55104;47.356;19.448;2023-03-21T14:31:56;1.60;;;0.57;;
68273;SDS011;55104;47.356;19.448;2023-03-21T14:35:00;1.55;;;0.32;;
68273;SDS011;55104;47.356;19.448;2023-03-21T14:38:04;1.63;;;0.65;;
68273;SDS011;55104;47.356;19.448;2023-03-21T14:41:23;1.13;;;0.30;;
68273;SDS011;55104;47.356;19.448;2023-03-21T14:44:47;0.80;;;0.40;;
68273;SDS011;55104;47.356;19.448;2023-03-21T14:47:58;2.43;;;0.70;;
68273;SDS011;55104;47.356;19.448;2023-03-21T14:51:21;1.10;;;0.50;;
68273;SDS011;55104;47.356;19.448;2023-03-21T14:54:24;1.45;;;0.35;;
68273;SDS011;55104;47.356;19.448;2023-03-21T14:57:29;0.88;;;0.35;;
68273;SDS011;55104;47.356;19.448;2023-03-21T15:00:32;2.33;;;0.60;;
68273;SDS011;55104;47.356;19.448;2023-03-21T15:03:36;1.43;;;0.40;;
68273;SDS011;55104;47.356;19.448;2023-03-21T15:06:52;1.52;;;0.75;;
68273;SDS011;55104;47.356;19.448;2023-03-21T15:10:07;1.25;;;0.38;;
68273;SDS011;55104;47.356;19.448;2023-03-21T15:13:18;1.02;;;0.35;;
68273;SDS011;55104;47.356;19.448;2023-03-21T15:16:22;0.53;;;0.27;;
68273;SDS011;55104;47.356;19.448;2023-03-21T15:19:28;1.50;;;0.67;;
68273;SDS011;55104;47.356;19.448;2023-03-21T15:22:36;0.98;;;0.38;;
68273;SDS011;55104;47.356;19.448;2023-03-21T15:25:41;1.27;;;0.30;;
68273;SDS011;55104;47.356;19.448;2023-03-21T15:28:44;1.35;;;0.50;;
68273;SDS011;55104;47.356;19.448;2023-03-21T15:31:48;0.87;;;0.20;;
68273;SDS011;55104;47.356;19.448;2023-03-21T15:34:51;1.17;;;0.40;;
68273;SDS011;55104;47.356;19.448;2023-03-21T15:37:57;1.42;;;0.63;;
68273;SDS011;55104;47.356;19.448;2023-03-21T15:41:13;1.20;;;0.40;;
68273;SDS011;55104;47.356;19.448;2023-03-21T15:44:21;1.58;;;0.43;;
68273;SDS011;55104;47.356;19.448;2023-03-21T15:47:38;0.70;;;0.30;;
68273;SDS011;55104;47.356;19.448;2023-03-21T15:51:02;1.10;;;0.40;;
68273;SDS011;55104;47.356;19.448;2023-03-21T15:54:09;1.95;;;0.70;;
68273;SDS011;55104;47.356;19.448;2023-03-21T15:57:24;1.48;;;0.55;;
68273;SDS011;55104;47.356;19.448;2023-03-21T16:00:41;5.57;;;0.50;;
68273;SDS011;55104;47.356;19.448;2023-03-21T16:03:46;1.67;;;0.53;;
68273;SDS011;55104;47.356;19.448;2023-03-21T16:06:56;0.70;;;0.30;;
68273;SDS011;55104;47.356;19.448;2023-03-21T16:10:26;2.55;;;0.50;;
68273;SDS011;55104;47.356;19.448;2023-03-21T16:13:32;1.25;;;0.50;;
68273;SDS011;55104;47.356;19.448;2023-03-21T16:16:34;0.73;;;0.28;;
68273;SDS011;55104;47.356;19.448;2023-03-21T16:19:37;1.47;;;0.50;;
68273;SDS011;55104;47.356;19.448;2023-03-21T16:22:39;1.17;;;0.40;;
68273;SDS011;55104;47.356;19.448;2023-03-21T16:25:42;0.93;;;0.40;;
68273;SDS011;55104;47.356;19.448;2023-03-21T16:28:44;1.48;;;0.28;;
68273;SDS011;55104;47.356;19.448;2023-03-21T16:31:46;0.63;;;0.30;;
68273;SDS011;55104;47.356;19.448;2023-03-21T16:34:49;2.23;;;0.53;;
68273;SDS011;55104;47.356;19.448;2023-03-21T16:37:54;2.33;;;0.60;;
68273;SDS011;55104;47.356;19.448;2023-03-21T16:40:56;0.82;;;0.40;;
68273;SDS011;55104;47.356;19.448;2023-03-21T16:43:59;0.82;;;0.38;;
68273;SDS011;55104;47.356;19.448;2023-03-21T16:47:01;1.23;;;0.50;;
68273;SDS011;55104;47.356;19.448;2023-03-21T16:53:31;1.03;;;0.27;;
68273;SDS011;55104;47.356;19.448;2023-03-21T16:59:38;4.50;;;0.90;;
68273;SDS011;55104;47.356;19.448;2023-03-21T17:02:41;3.15;;;1.08;;
68273;SDS011;55104;47.356;19.448;2023-03-21T17:05:43;6.03;;;0.97;;
68273;SDS011;55104;47.356;19.448;2023-03-21T17:08:46;3.00;;;1.40;;
68273;SDS011;55104;47.356;19.448;2023-03-21T17:11:48;5.47;;;1.30;;
68273;SDS011;55104;47.356;19.448;2023-03-21T17:14:52;12.45;;;1.60;;
68273;SDS011;55104;47.356;19.448;2023-03-21T17:17:54;2.25;;;1.13;;
68273;SDS011;55104;47.356;19.448;2023-03-21T17:20:56;3.57;;;1.40;;
68273;SDS011;55104;47.356;19.448;2023-03-21T17:23:58;3.10;;;1.37;;
68273;SDS011;55104;47.356;19.448;2023-03-21T17:27:00;2.35;;;1.00;;
68273;SDS011;55104;47.356;19.448;2023-03-21T17:30:24;4.72;;;1.48;;
68273;SDS011;55104;47.356;19.448;2023-03-21T17:33:28;6.13;;;2.17;;
68273;SDS011;55104;47.356;19.448;2023-03-21T17:36:32;6.37;;;2.27;;
68273;SDS011;55104;47.356;19.448;2023-03-21T17:39:36;5.32;;;2.15;;
68273;SDS011;55104;47.356;19.448;2023-03-21T17:42:39;6.40;;;2.08;;
68273;SDS011;55104;47.356;19.448;2023-03-21T17:45:42;7.90;;;2.50;;
68273;SDS011;55104;47.356;19.448;2023-03-21T17:48:44;3.97;;;1.42;;
68273;SDS011;55104;47.356;19.448;2023-03-21T17:51:46;2.77;;;0.87;;
68273;SDS011;55104;47.356;19.448;2023-03-21T17:54:48;5.50;;;2.05;;
68273;SDS011;55104;47.356;19.448;2023-03-21T17:57:51;4.35;;;1.85;;
68273;SDS011;55104;47.356;19.448;2023-03-21T18:00:53;4.43;;;1.52;;
68273;SDS011;55104;47.356;19.448;2023-03-21T18:03:55;3.10;;;0.90;;
68273;SDS011;55104;47.356;19.448;2023-03-21T18:06:58;10.80;;;1.17;;
68273;SDS011;55104;47.356;19.448;2023-03-21T18:10:02;3.20;;;1.40;;
68273;SDS011;55104;47.356;19.448;2023-03-21T18:13:04;2.67;;;1.08;;
68273;SDS011;55104;47.356;19.448;2023-03-21T18:16:08;4.85;;;1.90;;
68273;SDS011;55104;47.356;19.448;2023-03-21T18:19:12;7.28;;;1.73;;
68273;SDS011;55104;47.356;19.448;2023-03-21T18:22:15;4.60;;;1.40;;
68273;SDS011;55104;47.356;19.448;2023-03-21T18:25:18;5.90;;;2.47;;
68273;SDS011;55104;47.356;19.448;2023-03-21T18:28:20;4.85;;;2.25;;
68273;SDS011;55104;47.356;19.448;2023-03-21T18:31:23;3.42;;;0.98;;
68273;SDS011;55104;47.356;19.448;2023-03-21T18:34:26;3.95;;;1.10;;
68273;SDS011;55104;47.356;19.448;2023-03-21T18:37:28;4.47;;;1.63;;
68273;SDS011;55104;47.356;19.448;2023-03-21T18:40:36;3.45;;;0.93;;
68273;SDS011;55104;47.356;19.448;2023-03-21T18:43:39;3.72;;;1.42;;
68273;SDS011;55104;47.356;19.448;2023-03-21T18:47:02;3.25;;;1.33;;
68273;SDS011;55104;47.356;19.448;2023-03-21T18:50:05;3.90;;;1.45;;
68273;SDS011;55104;47.356;19.448;2023-03-21T18:53:15;6.63;;;1.40;;
68273;SDS011;55104;47.356;19.448;2023-03-21T18:56:18;4.80;;;1.83;;
68273;SDS011;55104;47.356;19.448;2023-03-21T18:59:40;4.07;;;1.27;;
68273;SDS011;55104;47.356;19.448;2023-03-21T19:02:44;6.68;;;2.42;;
68273;SDS011;55104;47.356;19.448;2023-03-21T19:05:49;5.18;;;1.50;;
68273;SDS011;55104;47.356;19.448;2023-03-21T19:08:51;3.77;;;1.57;;
68273;SDS011;55104;47.356;19.448;2023-03-21T19:11:54;5.90;;;2.13;;
68273;SDS011;55104;47.356;19.448;2023-03-21T19:14:56;6.05;;;1.85;;
68273;SDS011;55104;47.356;19.448;2023-03-21T19:17:58;5.32;;;2.03;;
68273;SDS011;55104;47.356;19.448;2023-03-21T19:21:20;5.95;;;1.25;;
68273;SDS011;55104;47.356;19.448;2023-03-21T19:24:23;14.37;;;2.93;;
68273;SDS011;55104;47.356;19.448;2023-03-21T19:27:29;6.63;;;2.70;;
68273;SDS011;55104;47.356;19.448;2023-03-21T19:30:31;4.00;;;1.80;;
68273;SDS011;55104;47.356;19.448;2023-03-21T19:33:34;6.15;;;2.00;;
68273;SDS011;55104;47.356;19.448;2023-03-21T19:36:37;6.53;;;2.40;;
68273;SDS011;55104;47.356;19.448;2023-03-21T19:39:39;8.38;;;3.13;;
68273;SDS011;55104;47.356;19.448;2023-03-21T19:42:41;6.80;;;2.75;;
68273;SDS011;55104;47.356;19.448;2023-03-21T19:45:47;4.40;;;1.58;;
68273;SDS011;55104;47.356;19.448;2023-03-21T19:48:49;15.00;;;4.00;;
68273;SDS011;55104;47.356;19.448;2023-03-21T19:51:51;19.07;;;3.77;;
68273;SDS011;55104;47.356;19.448;2023-03-21T19:54:54;6.25;;;2.85;;
68273;SDS011;55104;47.356;19.448;2023-03-21T19:57:56;20.90;;;4.18;;
68273;SDS011;55104;47.356;19.448;2023-03-21T20:00:58;3.92;;;1.83;;
68273;SDS011;55104;47.356;19.448;2023-03-21T20:04:01;6.63;;;2.00;;